Time;durP1;ratioP1;P1;durP2;ratioP2;P2;SDS_P1;SDS_P2;PMS_P1;PMS_P2;Temp;Humidity;BMP_temperature;BMP_pressure;BME280_temperature;BME280_humidity;BME280_pressure;Samples;Min_cycle;Max_cycle;Signal;HPM_P1;HPM_P2
2023/01/02 00:04:10;;;;;;;26.67;20.90;;;11.40;88.50;;;;;;10943805;32;20019;-73
2023/01/02 00:10:20;;;;;;;28.27;21.27;;;11.30;88.50;;;;;;10930259;32;20419;-73
2023/01/02 00:16:22;;;;;;;38.95;28.10;;;11.30;88.50;;;;;;10943553;32;20038;-73
2023/01/02 00:22:25;;;;;;;28.77;20.77;;;11.40;88.60;;;;;;10930387;27;20397;-73
2023/01/02 00:28:27;;;;;;;27.70;19.52;;;11.40;88.50;;;;;;10942185;32;20042;-73
2023/01/02 00:34:30;;;;;;;21.85;14.90;;;11.30;88.50;;;;;;10942747;32;20019;-73
2023/01/02 00:40:33;;;;;;;27.85;18.83;;;11.30;88.50;;;;;;10940323;32;20034;-73
2023/01/02 00:46:35;;;;;;;20.85;16.17;;;11.30;88.60;;;;;;10940419;32;20049;-74
2023/01/02 00:52:37;;;;;;;24.50;14.43;;;11.30;88.60;;;;;;10942326;32;20050;-73
2023/01/02 00:58:39;;;;;;;32.88;19.30;;;11.30;88.60;;;;;;10938076;32;20046;-73
2023/01/02 01:04:41;;;;;;;22.20;14.32;;;11.30;88.60;;;;;;10941986;32;20023;-73
2023/01/02 01:10:43;;;;;;;30.73;20.02;;;11.30;88.60;;;;;;10928382;32;20042;-73
2023/01/02 01:16:45;;;;;;;26.83;18.52;;;11.30;88.60;;;;;;10928454;32;20290;-73
2023/01/02 01:22:48;;;;;;;21.33;14.07;;;11.30;88.60;;;;;;10941500;32;20054;-73
2023/01/02 01:28:55;;;;;;;18.65;13.15;;;11.20;88.60;;;;;;10941558;32;20045;-73
2023/01/02 01:34:59;;;;;;;;;;;11.20;88.60;;;;;;10941828;32;20023;-73
2023/01/02 01:41:03;;;;;;;23.30;17.33;;;11.20;88.70;;;;;;10941916;32;19930;-73
2023/01/02 01:47:14;;;;;;;14.55;9.73;;;11.10;88.60;;;;;;10941156;32;20011;-73
2023/01/02 01:53:20;;;;;;;23.60;16.30;;;11.10;88.60;;;;;;10927633;32;20034;-73
2023/01/02 01:59:23;;;;;;;20.75;13.10;;;11.00;88.60;;;;;;10940877;32;20011;-74
2023/01/02 02:05:28;;;;;;;18.27;12.80;;;11.10;88.60;;;;;;10940788;32;20372;-73
2023/01/02 02:11:30;;;;;;;13.02;8.00;;;11.10;88.60;;;;;;10927589;32;20053;-74
2023/01/02 02:17:32;;;;;;;15.98;10.15;;;11.00;88.60;;;;;;10947571;32;20050;-73
2023/01/02 02:23:49;;;;;;;24.23;14.63;;;11.00;88.50;;;;;;10947413;32;20022;-74
2023/01/02 02:30:03;;;;;;;20.55;15.20;;;11.00;88.60;;;;;;10947228;32;20325;-74
2023/01/02 02:36:08;;;;;;;26.90;15.57;;;11.00;88.60;;;;;;10929466;32;20046;-73
2023/01/02 02:42:16;;;;;;;24.40;15.55;;;11.00;88.60;;;;;;10946704;32;20365;-73
2023/01/02 02:48:55;;;;;;;33.30;20.45;;;11.00;88.50;;;;;;10946619;32;20061;-73
2023/01/02 02:55:02;;;;;;;18.98;12.77;;;11.00;88.50;;;;;;10867577;32;20023;-73
2023/01/02 03:01:16;;;;;;;22.65;15.40;;;11.00;88.60;;;;;;10863915;32;20373;-74
2023/01/02 03:07:53;;;;;;;23.62;13.73;;;11.00;88.60;;;;;;10866599;32;20449;-74
2023/01/02 03:14:07;;;;;;;19.52;12.60;;;11.00;88.60;;;;;;10866613;32;20023;-74
2023/01/02 03:20:15;;;;;;;23.83;12.23;;;11.00;88.60;;;;;;10866180;32;20039;-73
2023/01/02 03:26:26;;;;;;;27.60;17.37;;;11.10;88.60;;;;;;10865328;32;20339;-73
2023/01/02 03:32:32;;;;;;;18.52;12.00;;;11.10;88.70;;;;;;10944349;32;20368;-73
2023/01/02 03:38:39;;;;;;;19.33;11.55;;;11.20;88.70;;;;;;10944781;32;20034;-73
2023/01/02 03:44:44;;;;;;;25.05;14.43;;;11.20;88.60;;;;;;10930944;32;20023;-73
2023/01/02 03:50:51;;;;;;;19.80;11.88;;;11.20;88.60;;;;;;10944385;32;20019;-73
2023/01/02 03:57:06;;;;;;;27.35;16.98;;;11.20;88.60;;;;;;10944094;32;20085;-73
2023/01/02 04:03:13;;;;;;;10.27;6.85;;;11.10;88.60;;;;;;10928416;32;20565;-73
2023/01/02 04:09:20;;;;;;;18.80;11.55;;;11.10;88.60;;;;;;10942118;32;20094;-73
2023/01/02 04:15:25;;;;;;;22.67;11.45;;;11.10;88.60;;;;;;10929417;32;20022;-73
2023/01/02 04:21:30;;;;;;;17.90;10.18;;;11.00;88.60;;;;;;10916745;32;20061;-73
2023/01/02 04:27:38;;;;;;;22.92;12.95;;;11.10;88.70;;;;;;10940255;32;20038;-73
2023/01/02 04:33:44;;;;;;;18.37;10.52;;;11.00;88.60;;;;;;10942851;32;20042;-73
2023/01/02 04:39:46;;;;;;;18.20;11.80;;;11.00;88.60;;;;;;10942336;32;20053;-73
2023/01/02 04:45:49;;;;;;;29.50;15.10;;;11.00;88.60;;;;;;10942570;32;20081;-73
2023/01/02 04:51:51;;;;;;;20.58;12.85;;;11.00;88.60;;;;;;10942361;32;20046;-73
2023/01/02 04:57:52;;;;;;;16.23;9.50;;;11.00;88.60;;;;;;10942198;32;20038;-73
2023/01/02 05:03:57;;;;;;;20.60;12.23;;;11.00;88.60;;;;;;10941937;32;20041;-73
2023/01/02 05:09:59;;;;;;;28.65;14.20;;;11.00;88.70;;;;;;10928340;32;20030;-73
2023/01/02 05:16:02;;;;;;;17.02;10.43;;;11.00;88.60;;;;;;10941990;32;20012;-73
2023/01/02 05:28:25;;;;;;;15.93;8.90;;;11.00;88.70;;;;;;10941591;32;20042;-73
2023/01/02 05:34:27;;;;;;;11.02;6.90;;;11.00;88.60;;;;;;10941312;32;20038;-73
2023/01/02 05:40:29;;;;;;;19.85;13.35;;;10.90;88.60;;;;;;10941226;32;20073;-73
2023/01/02 05:46:31;;;;;;;20.00;13.77;;;10.90;88.60;;;;;;10941280;32;20020;-73
2023/01/02 05:52:33;;;;;;;24.42;14.10;;;10.90;88.70;;;;;;10946565;32;20042;-73
2023/01/02 05:58:37;;;;;;;13.82;7.72;;;10.90;88.70;;;;;;10948203;32;20023;-73
2023/01/02 06:04:39;;;;;;;27.02;14.73;;;10.90;88.70;;;;;;10948122;32;20031;-73
2023/01/02 06:10:49;;;;;;;19.33;10.70;;;10.90;88.60;;;;;;10947854;32;20337;-73
2023/01/02 06:16:51;;;;;;;22.33;12.20;;;10.90;88.70;;;;;;10947688;32;20423;-73
2023/01/02 06:22:54;;;;;;;29.48;11.43;;;10.90;88.60;;;;;;10947449;32;20053;-73
2023/01/02 06:28:57;;;;;;;18.55;10.73;;;10.90;88.60;;;;;;10947270;32;20007;-73
2023/01/02 06:34:59;;;;;;;21.45;11.88;;;10.90;88.60;;;;;;10947104;32;20074;-73
2023/01/02 06:41:02;;;;;;;22.37;13.05;;;10.80;88.60;;;;;;10946867;32;20023;-73
2023/01/02 06:47:04;;;;;;;24.65;14.07;;;10.80;88.60;;;;;;10933199;32;20317;-73
2023/01/02 06:53:06;;;;;;;27.60;14.93;;;10.80;88.60;;;;;;10920109;32;20031;-73
2023/01/02 06:59:09;;;;;;;19.23;10.07;;;10.80;88.70;;;;;;10946132;32;20049;-73
2023/01/02 07:05:11;;;;;;;14.90;8.93;;;10.90;88.70;;;;;;10945991;32;20022;-73
2023/01/02 07:11:17;;;;;;;17.42;9.57;;;11.00;88.70;;;;;;10945566;32;20041;-73
2023/01/02 07:17:19;;;;;;;23.50;11.68;;;11.00;88.70;;;;;;10945468;32;20328;-73
2023/01/02 07:23:21;;;;;;;17.45;9.48;;;11.00;88.80;;;;;;10931471;32;20050;-73
2023/01/02 07:29:23;;;;;;;16.95;10.27;;;11.00;88.90;;;;;;10945109;32;20337;-73
2023/01/02 07:35:25;;;;;;;16.80;9.63;;;11.00;88.90;;;;;;10944831;32;20045;-73
2023/01/02 07:41:28;;;;;;;18.12;11.27;;;11.00;88.90;;;;;;10944608;32;20019;-73
2023/01/02 07:47:30;;;;;;;11.88;7.00;;;11.00;89.00;;;;;;10944381;32;20027;-73
2023/01/02 07:53:33;;;;;;;23.65;11.43;;;11.00;88.90;;;;;;10944050;32;20014;-73
2023/01/02 07:59:35;;;;;;;21.55;10.10;;;11.00;89.00;;;;;;10943485;32;20053;-73
2023/01/02 08:06:27;;;;;;;24.27;13.75;;;11.00;89.10;;;;;;10943809;32;20042;-73
2023/01/02 08:12:29;;;;;;;20.73;10.68;;;11.10;89.10;;;;;;10929093;32;20027;-73
2023/01/02 08:18:32;;;;;;;18.37;11.12;;;11.10;89.00;;;;;;10939226;32;20015;-73
2023/01/02 08:24:34;;;;;;;31.73;13.60;;;11.10;88.90;;;;;;10925620;27;20418;-73
2023/01/02 08:30:38;;;;;;;21.15;11.27;;;11.00;89.00;;;;;;10904946;32;20027;-73
2023/01/02 08:36:41;;;;;;;16.17;10.20;;;11.00;89.10;;;;;;10904835;32;20311;-73
2023/01/02 08:42:43;;;;;;;27.05;12.73;;;11.00;89.10;;;;;;10904683;32;20031;-73
2023/01/02 08:48:45;;;;;;;22.50;10.30;;;11.00;89.20;;;;;;10904530;32;20015;-73
2023/01/02 08:54:47;;;;;;;24.00;12.05;;;11.00;89.20;;;;;;10902332;32;20058;-73
2023/01/02 09:00:51;;;;;;;26.70;15.80;;;11.00;89.20;;;;;;10890627;32;20035;-73
2023/01/02 09:06:53;;;;;;;16.77;9.32;;;11.00;89.20;;;;;;10888046;32;20030;-73
2023/01/02 09:12:57;;;;;;;13.40;7.93;;;11.00;89.30;;;;;;10903292;32;20023;-73
2023/01/02 09:19:01;;;;;;;23.52;11.63;;;11.10;89.30;;;;;;10904109;32;20020;-73
2023/01/02 09:25:03;;;;;;;30.48;15.95;;;11.00;89.30;;;;;;10893125;32;20019;-73
2023/01/02 09:31:08;;;;;;;24.25;13.35;;;11.00;89.30;;;;;;10897098;32;20027;-73
2023/01/02 09:37:12;;;;;;;26.98;12.98;;;11.00;89.30;;;;;;10911266;32;20015;-74
2023/01/02 09:43:21;;;;;;;20.88;11.30;;;11.20;89.40;;;;;;10911052;32;20027;-73
2023/01/02 09:49:44;;;;;;;33.72;15.48;;;11.20;89.20;;;;;;10910868;32;20046;-73
2023/01/02 09:55:54;;;;;;;24.75;13.23;;;11.10;89.30;;;;;;10910636;32;20045;-73
2023/01/02 10:02:09;;;;;;;19.45;9.68;;;11.10;89.30;;;;;;10896584;32;20038;-73
2023/01/02 10:08:31;;;;;;;26.58;15.52;;;11.10;89.40;;;;;;10907974;32;20042;-73
2023/01/02 10:15:02;;;;;;;38.67;16.27;;;11.10;89.30;;;;;;10895093;32;20350;-73
2023/01/02 10:21:07;;;;;;;29.55;14.30;;;11.10;89.40;;;;;;10894722;32;20031;-73
2023/01/02 10:27:35;;;;;;;37.10;19.00;;;11.10;89.40;;;;;;10907974;32;20054;-73
2023/01/02 10:33:46;;;;;;;37.47;15.73;;;11.20;89.40;;;;;;10908848;32;20038;-73
2023/01/02 10:39:49;;;;;;;29.52;13.02;;;11.20;89.40;;;;;;10909259;32;20020;-73
2023/01/02 10:45:51;;;;;;;34.50;15.68;;;11.20;89.30;;;;;;10908818;32;20054;-74
2023/01/02 10:52:09;;;;;;;13.82;8.10;;;11.20;89.40;;;;;;10908133;32;20419;-73
2023/01/02 10:58:28;;;;;;;26.92;12.27;;;11.20;89.40;;;;;;10904164;32;20023;-73
2023/01/02 11:04:30;;;;;;;22.87;11.57;;;11.20;89.50;;;;;;10904261;32;20345;-73
2023/01/02 11:10:36;;;;;;;31.73;15.82;;;11.30;89.50;;;;;;10906939;32;20027;-74
2023/01/02 11:17:21;;;;;;;30.75;15.18;;;11.30;89.50;;;;;;10926417;32;20061;-73
2023/01/02 11:23:25;;;;;;;26.92;13.27;;;11.30;89.50;;;;;;10743410;33;20064;-73
2023/01/02 11:29:47;;;;;;;28.62;12.55;;;11.40;89.60;;;;;;10753530;33;20033;-73
2023/01/02 11:35:51;;;;;;;20.70;11.80;;;11.40;89.50;;;;;;10742521;33;20036;-73
2023/01/02 11:48:33;;;;;;;31.37;19.93;;;11.40;89.60;;;;;;10754078;33;20020;-73
2023/01/02 11:54:47;;;;;;;33.25;16.02;;;11.50;89.40;;;;;;10875234;32;20117;-73
2023/01/02 12:00:55;;;;;;;67.15;39.80;;;11.50;89.50;;;;;;10906002;32;20081;-74
2023/01/02 12:07:34;;;;;;;42.38;22.42;;;11.50;89.40;;;;;;10893856;32;20023;-73
2023/01/02 12:13:42;;;;;;;42.03;23.40;;;11.50;89.40;;;;;;10868549;32;20020;-73
2023/01/02 12:20:10;;;;;;;36.55;18.23;;;11.50;89.60;;;;;;10831150;32;20058;-73
2023/01/02 12:26:21;;;;;;;43.38;24.77;;;11.60;89.50;;;;;;10866633;32;20039;-74
2023/01/02 12:32:38;;;;;;;29.45;16.73;;;11.70;89.70;;;;;;10867756;32;20027;-74
2023/01/02 12:39:05;;;;;;;24.75;15.05;;;11.80;89.40;;;;;;10867639;32;20046;-74
2023/01/02 12:45:39;;;;;;;27.48;15.07;;;11.70;89.50;;;;;;10867430;32;20054;-73
2023/01/02 12:51:55;;;;;;;22.45;14.57;;;11.70;89.60;;;;;;10864685;32;20020;-73
2023/01/02 12:58:21;;;;;;;24.00;17.37;;;11.70;89.80;;;;;;10866917;32;20019;-73
2023/01/02 13:04:39;;;;;;;25.02;11.75;;;11.70;89.70;;;;;;10834970;32;20027;-73
2023/01/02 13:10:41;;;;;;;21.33;15.95;;;11.70;89.80;;;;;;10865989;32;20295;-73
2023/01/02 13:17:01;;;;;;;28.87;17.00;;;11.70;89.70;;;;;;10863438;32;20066;-73
2023/01/02 13:23:28;;;;;;;31.27;19.77;;;11.70;89.80;;;;;;10866627;32;20054;-74
2023/01/02 13:29:44;;;;;;;28.42;15.25;;;11.70;89.90;;;;;;10866488;32;20054;-74
2023/01/02 13:35:46;;;;;;;26.83;18.15;;;11.70;89.90;;;;;;10852740;32;20398;-74
2023/01/02 13:48:28;;;;;;;37.95;23.73;;;11.80;90.00;;;;;;10863963;32;20023;-73
2023/01/02 13:54:36;;;;;;;39.08;23.67;;;12.00;89.90;;;;;;10853579;32;20019;-73
2023/01/02 14:00:45;;;;;;;19.67;13.32;;;12.10;89.70;;;;;;10864566;32;20390;-73
2023/01/02 14:06:47;;;;;;;34.05;20.67;;;12.10;89.70;;;;;;10865578;32;20054;-74
2023/01/02 14:13:01;;;;;;;24.50;15.75;;;12.00;89.80;;;;;;10871937;32;20074;-73
2023/01/02 14:19:13;;;;;;;31.10;15.55;;;12.00;89.70;;;;;;10868928;32;20015;-73
2023/01/02 14:25:16;;;;;;;21.42;13.80;;;11.90;89.70;;;;;;10870688;32;20057;-74
2023/01/02 14:31:30;;;;;;;31.90;17.37;;;11.90;89.80;;;;;;10871844;32;20032;-73
2023/01/02 14:37:44;;;;;;;23.33;15.57;;;11.80;89.90;;;;;;10870859;32;20303;-73
2023/01/02 14:43:47;;;;;;;30.83;17.87;;;11.90;89.90;;;;;;10900443;32;20043;-74
2023/01/02 14:49:57;;;;;;;24.73;15.77;;;12.00;89.90;;;;;;10904969;32;20470;-74
2023/01/02 14:56:10;;;;;;;22.33;12.65;;;12.00;89.70;;;;;;10905431;32;20053;-74
2023/01/02 15:02:15;;;;;;;22.70;12.48;;;11.90;89.80;;;;;;10907760;32;20027;-74
2023/01/02 15:08:34;;;;;;;30.60;15.40;;;11.90;89.90;;;;;;10894529;32;20031;-73
2023/01/02 15:14:38;;;;;;;25.30;15.32;;;12.00;89.90;;;;;;10916292;32;20061;-73
2023/01/02 15:20:40;;;;;;;33.33;19.20;;;12.10;89.70;;;;;;10897479;32;20035;-73
2023/01/02 15:26:43;;;;;;;25.27;13.65;;;12.10;89.70;;;;;;10449970;32;12127960;-73
2023/01/02 15:32:48;;;;;;;31.12;15.60;;;12.00;89.70;;;;;;10789234;32;20039;-73
2023/01/02 15:38:50;;;;;;;25.75;13.65;;;12.00;89.80;;;;;;10791882;33;20054;-73
2023/01/02 15:51:25;;;;;;;23.12;11.50;;;11.90;89.80;;;;;;10758104;33;20102;-73
2023/01/02 15:57:30;;;;;;;39.55;19.48;;;11.90;89.80;;;;;;10790792;32;20039;-74
2023/01/02 16:03:37;;;;;;;29.25;15.63;;;11.90;89.90;;;;;;10790722;33;20341;-73
2023/01/02 16:09:45;;;;;;;39.03;18.60;;;11.90;90.00;;;;;;10790287;33;20052;-73
2023/01/02 16:15:47;;;;;;;20.62;11.52;;;12.00;89.80;;;;;;10790405;33;20036;-74
2023/01/02 16:21:59;;;;;;;24.40;14.02;;;11.90;89.70;;;;;;10786386;27;20062;-73
2023/01/02 16:28:24;;;;;;;39.83;20.30;;;11.80;89.80;;;;;;10927578;32;20022;-73
2023/01/02 16:34:29;;;;;;;27.92;15.30;;;11.80;90.00;;;;;;10924038;32;20042;-73
2023/01/02 16:40:41;;;;;;;22.37;13.35;;;11.90;89.90;;;;;;10942551;32;20054;-74
2023/01/02 16:46:47;;;;;;;27.23;15.43;;;11.80;89.80;;;;;;10942317;32;20031;-73
2023/01/02 16:52:52;;;;;;;25.55;12.30;;;11.70;89.90;;;;;;10942288;32;20163;-74
2023/01/02 16:58:54;;;;;;;27.83;14.20;;;11.80;89.90;;;;;;10928186;32;20436;-73
2023/01/02 17:04:56;;;;;;;25.00;14.73;;;11.80;89.90;;;;;;10941347;32;20022;-73
2023/01/02 17:10:59;;;;;;;25.10;13.75;;;11.70;89.90;;;;;;10940630;32;20057;-73
2023/01/02 17:17:01;;;;;;;23.20;12.37;;;11.70;90.00;;;;;;10937012;32;20389;-73
2023/01/02 17:23:04;;;;;;;29.45;14.85;;;11.70;90.00;;;;;;10941038;32;20435;-73
2023/01/02 17:29:07;;;;;;;25.20;15.52;;;11.70;90.10;;;;;;10940365;32;20042;-72
2023/01/02 17:35:10;;;;;;;26.73;15.13;;;11.80;90.10;;;;;;10938652;32;20031;-72
2023/01/02 17:41:12;;;;;;;25.70;15.65;;;12.00;89.90;;;;;;10927118;32;20023;-73
2023/01/02 17:47:15;;;;;;;20.73;12.43;;;12.10;89.80;;;;;;10946970;32;20023;-72
2023/01/02 17:53:17;;;;;;;34.30;16.55;;;12.10;89.60;;;;;;10935195;32;20015;-72
2023/01/02 17:59:19;;;;;;;26.45;12.80;;;12.00;89.80;;;;;;10921831;32;20065;-74
2023/01/02 18:05:22;;;;;;;26.77;13.93;;;11.90;89.80;;;;;;10948044;32;20041;-74
2023/01/02 18:11:24;;;;;;;26.17;13.62;;;11.90;90.00;;;;;;10930949;32;20401;-74
2023/01/02 18:17:27;;;;;;;18.73;11.38;;;11.90;89.90;;;;;;10947704;32;20053;-73
2023/01/02 18:23:29;;;;;;;27.40;15.70;;;11.90;89.90;;;;;;10947247;32;20049;-73
2023/01/02 18:29:31;;;;;;;38.15;18.17;;;11.90;89.90;;;;;;10947275;32;20041;-73
2023/01/02 18:35:34;;;;;;;24.65;12.75;;;12.00;89.80;;;;;;10960832;32;20053;-74
2023/01/02 18:41:36;;;;;;;27.77;16.12;;;12.10;89.70;;;;;;10970906;32;20042;-74
2023/01/02 18:47:38;;;;;;;26.02;13.57;;;12.00;89.80;;;;;;10984467;32;20023;-74
2023/01/02 18:53:46;;;;;;;30.73;17.27;;;11.90;89.90;;;;;;10970403;32;20038;-74
2023/01/02 18:59:50;;;;;;;18.00;10.45;;;11.90;89.90;;;;;;10981186;32;20041;-74
2023/01/02 19:05:53;;;;;;;20.77;11.65;;;11.90;90.00;;;;;;10979940;32;20056;-74
2023/01/02 19:18:37;;;;;;;22.42;12.93;;;11.80;90.10;;;;;;10983102;32;20392;-73
2023/01/02 19:24:39;;;;;;;21.52;10.25;;;11.80;89.90;;;;;;10982959;32;20069;-73
2023/01/02 19:30:44;;;;;;;18.50;11.93;;;11.70;90.00;;;;;;10982783;32;20011;-73
2023/01/02 19:36:49;;;;;;;16.52;10.95;;;11.70;90.00;;;;;;10982614;32;20037;-73
2023/01/02 19:42:53;;;;;;;32.78;17.50;;;11.70;90.00;;;;;;10981974;32;20356;-73
2023/01/02 19:48:55;;;;;;;17.65;10.18;;;11.80;90.10;;;;;;10977896;32;20042;-73
2023/01/02 19:54:57;;;;;;;20.60;11.32;;;11.80;90.00;;;;;;10964541;32;20037;-73
2023/01/02 20:00:59;;;;;;;21.27;13.18;;;11.80;89.90;;;;;;10981761;32;20388;-73
2023/01/02 20:07:01;;;;;;;23.98;13.48;;;11.70;89.90;;;;;;10978264;32;20045;-73
2023/01/02 20:13:04;;;;;;;28.95;16.70;;;11.80;90.00;;;;;;10967252;32;20344;-73
2023/01/02 20:19:06;;;;;;;38.78;22.85;;;11.80;90.10;;;;;;10981028;32;20011;-73
2023/01/02 20:25:10;;;;;;;27.73;14.77;;;12.00;89.90;;;;;;10974629;32;20333;-73
2023/01/02 20:31:12;;;;;;;27.27;15.50;;;12.00;89.80;;;;;;10942919;32;20192;-73
2023/01/02 20:37:14;;;;;;;35.63;19.50;;;12.10;89.80;;;;;;10942768;32;20019;-73
2023/01/02 20:43:17;;;;;;;35.65;17.75;;;12.10;89.80;;;;;;10942660;32;20037;-74
2023/01/02 20:49:19;;;;;;;26.95;17.75;;;12.10;89.70;;;;;;10942420;32;20041;-73
2023/01/02 20:55:21;;;;;;;46.05;26.30;;;12.10;89.60;;;;;;10942276;32;20046;-73
2023/01/02 21:01:23;;;;;;;26.20;17.45;;;12.10;89.70;;;;;;10942171;32;20019;-73
2023/01/02 21:07:25;;;;;;;34.20;14.43;;;12.20;89.70;;;;;;10942047;32;20041;-73
2023/01/02 21:13:28;;;;;;;28.73;17.33;;;12.20;89.70;;;;;;10941807;32;20329;-73
2023/01/02 21:19:30;;;;;;;25.02;12.63;;;12.20;89.70;;;;;;10926981;32;20054;-73
2023/01/02 21:25:33;;;;;;;31.27;20.33;;;12.20;89.70;;;;;;10941379;32;20113;-73
2023/01/02 21:31:36;;;;;;;33.55;19.15;;;12.10;89.70;;;;;;10941315;32;20019;-72
2023/01/02 21:37:38;;;;;;;26.75;16.48;;;12.20;89.80;;;;;;10941391;32;20053;-72
2023/01/02 21:43:40;;;;;;;22.87;12.68;;;12.20;89.70;;;;;;10914898;32;20214;-72
2023/01/02 21:49:43;;;;;;;25.35;14.93;;;12.10;89.70;;;;;;10940493;32;20018;-72
2023/01/02 21:55:45;;;;;;;23.42;12.70;;;12.10;89.70;;;;;;10941074;32;20015;-72
2023/01/02 22:01:47;;;;;;;35.38;17.45;;;12.10;89.80;;;;;;10926847;32;20053;-72
2023/01/02 22:07:50;;;;;;;25.15;11.35;;;12.00;89.80;;;;;;10940385;32;20362;-72
2023/01/02 22:13:52;;;;;;;22.77;10.65;;;11.90;89.70;;;;;;10940609;32;20027;-72
2023/01/02 22:19:54;;;;;;;28.90;18.10;;;11.80;89.80;;;;;;10940611;32;20041;-72
2023/01/02 22:25:56;;;;;;;43.08;18.80;;;11.80;89.90;;;;;;10926499;32;20431;-72
2023/01/02 22:31:59;;;;;;;35.55;19.58;;;11.90;89.90;;;;;;10944528;32;20065;-72
2023/01/02 22:38:01;;;;;;;29.55;13.93;;;12.00;89.80;;;;;;10933697;32;20051;-72
2023/01/02 22:44:06;;;;;;;31.77;17.60;;;11.90;89.90;;;;;;10946856;32;20041;-72
2023/01/02 22:50:17;;;;;;;30.75;15.85;;;12.00;89.80;;;;;;10946585;32;20045;-72
2023/01/02 22:56:21;;;;;;;33.58;17.83;;;12.00;89.70;;;;;;10947597;32;20015;-72
2023/01/02 23:02:23;;;;;;;32.72;16.83;;;12.00;89.80;;;;;;10932824;32;20345;-72
2023/01/02 23:08:25;;;;;;;33.33;16.58;;;12.10;89.80;;;;;;10946137;32;20041;-72
2023/01/02 23:14:27;;;;;;;32.10;16.52;;;12.10;89.80;;;;;;10945802;32;20018;-71
2023/01/02 23:20:29;;;;;;;27.80;16.90;;;12.20;89.80;;;;;;10929885;32;20011;-71
2023/01/02 23:26:36;;;;;;;31.83;18.10;;;12.20;89.80;;;;;;10945326;32;20416;-72
2023/01/02 23:32:38;;;;;;;23.27;12.98;;;12.20;89.80;;;;;;10945139;32;20018;-72
2023/01/02 23:38:40;;;;;;;27.83;16.15;;;12.20;89.80;;;;;;10945020;32;20045;-72
2023/01/02 23:44:42;;;;;;;27.55;14.73;;;12.00;89.80;;;;;;10943796;32;20359;-73
2023/01/02 23:50:46;;;;;;;27.55;13.27;;;12.00;90.00;;;;;;10940381;32;20046;-73
2023/01/02 23:56:49;;;;;;;31.35;15.00;;;12.00;89.90;;;;;;10944355;32;20006;-73
